createdAt,value
2022-08-01T05:37:06.883Z,99.90
2022-08-01T05:39:52.944Z,99.90
2022-08-01T05:42:38.763Z,99.90
2022-08-01T05:45:24.650Z,99.90
2022-08-01T05:48:10.618Z,99.90
2022-08-01T05:50:58.542Z,99.90
2022-08-01T05:53:45.059Z,99.90
2022-08-01T05:56:32.392Z,99.90
2022-08-01T05:59:18.511Z,99.90
2022-08-01T06:02:05.116Z,99.90
2022-08-01T06:04:50.987Z,99.90
2022-08-01T06:07:37.800Z,99.90
2022-08-01T06:10:25.304Z,99.90
2022-08-01T06:13:11.001Z,99.90
2022-08-01T06:15:56.960Z,99.90
2022-08-01T06:18:43.320Z,99.90
2022-08-01T06:21:28.845Z,99.90
2022-08-01T06:24:14.622Z,99.90
2022-08-01T06:27:00.591Z,99.90
2022-08-01T06:29:53.620Z,99.90
2022-08-01T06:32:40.202Z,99.90
2022-08-01T06:35:26.651Z,99.90
2022-08-01T06:38:13.161Z,99.90
2022-08-01T06:40:59.536Z,99.90
2022-08-01T06:43:45.433Z,99.90
2022-08-01T06:46:32.536Z,99.90
2022-08-01T06:49:20.684Z,99.90
2022-08-01T06:52:07.086Z,99.90
2022-08-01T06:54:55.027Z,99.90
2022-08-01T06:57:52.595Z,99.90
2022-08-01T07:00:38.787Z,99.90
2022-08-01T07:03:24.667Z,99.90
2022-08-01T07:06:10.874Z,99.90
2022-08-01T07:08:56.848Z,99.90
2022-08-01T07:11:42.556Z,99.90
2022-08-01T07:14:28.519Z,99.90
2022-08-01T07:17:14.498Z,99.90
2022-08-01T07:20:00.299Z,99.90
2022-08-01T07:22:48.134Z,99.90
2022-08-01T07:25:34.293Z,99.10
2022-08-01T07:28:20.309Z,97.40
2022-08-01T07:31:06.183Z,97.30
2022-08-01T07:33:52.397Z,97.10
2022-08-01T07:36:38.266Z,97.30
2022-08-01T07:39:24.405Z,95.60
2022-08-01T07:42:10.899Z,94.20
2022-08-01T07:44:57.121Z,93.40
2022-08-01T07:47:43.314Z,92.70
2022-08-01T07:50:29.279Z,92.00
2022-08-01T07:53:19.677Z,90.00
2022-08-01T07:56:08.641Z,90.10
2022-08-01T07:58:54.368Z,88.10
2022-08-01T08:01:40.277Z,89.90
2022-08-01T08:04:26.832Z,89.90
2022-08-01T08:07:12.507Z,90.30
2022-08-01T08:09:58.817Z,87.60
2022-08-01T08:12:44.688Z,87.70
2022-08-01T08:15:30.706Z,85.90
2022-08-01T08:18:16.788Z,82.90
2022-08-01T08:21:06.285Z,83.30
2022-08-01T08:24:11.375Z,81.10
2022-08-01T08:27:00.527Z,78.40
2022-08-01T08:29:46.135Z,82.20
2022-08-01T08:32:32.163Z,79.80
2022-08-01T08:35:40.155Z,80.30
2022-08-01T08:38:29.994Z,79.00
2022-08-01T08:41:20.988Z,79.70
2022-08-01T08:44:09.991Z,82.00
2022-08-01T08:46:58.802Z,81.30
2022-08-01T08:49:46.110Z,79.20
2022-08-01T08:52:39.044Z,76.00
2022-08-01T08:55:25.791Z,76.30
2022-08-01T08:58:16.337Z,76.30
2022-08-01T09:01:02.735Z,69.70
2022-08-01T09:03:48.898Z,69.80
2022-08-01T09:06:34.810Z,71.20
2022-08-01T09:09:20.859Z,74.10
2022-08-01T09:12:07.419Z,74.80
2022-08-01T09:14:54.595Z,76.20
2022-08-01T09:17:42.769Z,74.50
2022-08-01T09:20:31.422Z,75.40
2022-08-01T09:23:34.155Z,73.60
2022-08-01T09:26:33.091Z,74.20
2022-08-01T09:29:36.293Z,74.90
2022-08-01T09:32:25.996Z,74.00
2022-08-01T09:35:43.656Z,75.20
2022-08-01T09:38:30.160Z,72.80
2022-08-01T09:41:16.853Z,70.40
2022-08-01T09:44:05.641Z,67.00
2022-08-01T09:46:51.551Z,69.90
2022-08-01T09:49:51.967Z,66.30
2022-08-01T09:52:41.315Z,66.00
2022-08-01T09:55:27.735Z,65.30
2022-08-01T09:58:14.279Z,65.80
2022-08-01T10:01:01.389Z,63.40
2022-08-01T10:03:47.410Z,63.70
2022-08-01T10:06:33.642Z,64.80
2022-08-01T10:09:39.813Z,66.80
2022-08-01T10:12:26.642Z,64.30
2022-08-01T10:15:16.291Z,63.80
2022-08-01T10:18:16.840Z,65.50
2022-08-01T10:21:12.971Z,67.30
2022-08-01T10:24:03.071Z,69.60
2022-08-01T10:26:52.537Z,69.00
2022-08-01T10:29:46.245Z,69.10
2022-08-01T10:32:50.673Z,71.80
2022-08-01T10:35:47.520Z,71.60
2022-08-01T10:38:35.487Z,71.40
2022-08-01T10:41:22.767Z,69.20
2022-08-01T10:44:11.560Z,69.60
2022-08-01T10:47:05.423Z,71.40
2022-08-01T10:50:05.455Z,70.70
2022-08-01T10:53:16.879Z,71.30
2022-08-01T10:56:12.823Z,72.10
2022-08-01T10:59:06.621Z,71.70
2022-08-01T11:01:58.829Z,70.70
2022-08-01T11:05:02.039Z,69.30
2022-08-01T11:07:54.639Z,70.50
2022-08-01T11:10:45.447Z,69.30
2022-08-01T11:13:59.786Z,69.80
2022-08-01T11:16:45.744Z,72.00
2022-08-01T11:20:11.759Z,70.80
2022-08-01T11:23:03.413Z,69.50
2022-08-01T11:26:05.987Z,68.50
2022-08-01T11:29:27.096Z,72.20
2022-08-01T11:32:26.578Z,70.00
2022-08-01T11:35:13.109Z,70.10
2022-08-01T11:38:25.592Z,71.50
2022-08-01T11:41:37.649Z,70.20
2022-08-01T11:44:30.519Z,69.00
2022-08-01T11:47:17.042Z,77.10
2022-08-01T11:50:07.947Z,84.40
2022-08-01T11:53:00.210Z,86.40
2022-08-01T11:55:53.634Z,87.40
2022-08-01T11:58:39.563Z,86.40
2022-08-01T12:01:29.511Z,89.60
2022-08-01T12:04:15.365Z,87.30
2022-08-01T12:07:24.175Z,90.10
2022-08-01T12:10:12.360Z,91.50
2022-08-01T12:13:01.787Z,90.90
2022-08-01T12:15:50.471Z,91.00
2022-08-01T12:18:44.522Z,91.60
2022-08-01T12:21:30.562Z,91.80
2022-08-01T12:24:23.528Z,91.10
2022-08-01T12:27:11.954Z,90.70
2022-08-01T12:29:59.307Z,90.20
2022-08-01T12:32:47.347Z,90.30
2022-08-01T12:35:35.165Z,90.50
2022-08-01T12:38:24.137Z,91.30
2022-08-01T12:41:12.074Z,91.80
2022-08-01T12:43:57.860Z,92.30
2022-08-01T12:46:44.598Z,92.80
2022-08-01T12:49:30.766Z,92.50
2022-08-01T12:52:18.377Z,93.00
2022-08-01T12:55:09.437Z,93.60
2022-08-01T12:58:06.361Z,93.50
2022-08-01T13:01:05.683Z,94.00
2022-08-01T13:04:07.596Z,93.80
2022-08-01T13:06:56.708Z,94.60
2022-08-01T13:09:53.415Z,95.50
2022-08-01T13:12:41.270Z,96.40
2022-08-01T13:15:32.651Z,97.20
2022-08-01T13:18:29.068Z,97.50
2022-08-01T13:21:28.226Z,97.90
2022-08-01T13:24:14.611Z,98.90
2022-08-01T13:27:04.817Z,98.80
2022-08-01T13:29:53.915Z,98.50
2022-08-01T13:32:40.026Z,97.90
2022-08-01T13:35:26.223Z,97.80
2022-08-01T13:38:11.732Z,97.40
2022-08-01T13:41:01.570Z,98.10
2022-08-01T13:43:58.674Z,98.80
2022-08-01T13:46:49.682Z,99.50
2022-08-01T13:49:38.316Z,99.10
2022-08-01T13:52:26.430Z,99.30
2022-08-01T13:55:12.564Z,98.10
2022-08-01T13:57:58.703Z,98.60
2022-08-01T14:00:44.590Z,99.60
2022-08-01T14:03:33.838Z,99.90
2022-08-01T14:06:23.418Z,99.90
2022-08-01T14:09:17.796Z,99.90
2022-08-01T14:12:10.091Z,99.90
2022-08-01T14:14:57.475Z,99.90
2022-08-01T14:17:47.562Z,99.90
2022-08-01T14:20:35.049Z,99.90
2022-08-01T14:23:21.040Z,99.90
2022-08-01T14:26:12.238Z,99.90
2022-08-01T14:28:58.829Z,99.90
2022-08-01T14:31:44.697Z,99.90
2022-08-01T14:34:30.482Z,99.90
2022-08-01T14:37:16.095Z,99.90
2022-08-01T14:40:08.621Z,99.90
2022-08-01T14:42:55.500Z,99.90
2022-08-01T14:45:41.376Z,99.90
2022-08-01T14:48:27.468Z,99.90
2022-08-01T14:51:13.192Z,99.90
2022-08-01T14:53:59.196Z,99.90
2022-08-01T14:56:46.118Z,99.90
2022-08-01T14:59:34.705Z,99.90
2022-08-01T15:02:20.728Z,99.90
2022-08-01T15:05:07.517Z,99.90
2022-08-01T15:07:53.777Z,99.90
2022-08-01T15:10:40.050Z,99.90
2022-08-01T15:13:25.886Z,99.90
2022-08-01T15:16:12.296Z,99.90
2022-08-01T15:18:58.441Z,99.90
2022-08-01T15:21:44.197Z,99.90
2022-08-01T15:24:30.073Z,99.90
2022-08-01T15:27:16.196Z,99.90
2022-08-01T15:30:01.976Z,99.90
2022-08-01T15:32:47.758Z,99.90
2022-08-01T15:35:37.255Z,99.90
2022-08-01T15:38:23.259Z,99.90
2022-08-01T15:41:09.385Z,99.90
2022-08-01T15:43:56.268Z,99.90
2022-08-01T15:46:42.347Z,99.90
2022-08-01T15:49:28.769Z,99.90
2022-08-01T15:52:22.232Z,99.90
2022-08-01T15:55:09.915Z,99.90
2022-08-01T15:57:56.017Z,99.90
2022-08-01T16:00:41.879Z,99.90
2022-08-01T16:03:28.840Z,99.90
2022-08-01T16:06:14.892Z,99.90
2022-08-01T16:09:01.321Z,99.90
2022-08-01T16:11:50.808Z,99.90
2022-08-01T16:14:36.649Z,99.90
2022-08-01T16:17:22.746Z,99.90
2022-08-01T16:20:09.600Z,99.90
2022-08-01T16:22:55.503Z,99.90
2022-08-01T16:25:41.850Z,99.90
2022-08-01T16:28:27.446Z,99.90
2022-08-01T16:31:17.167Z,99.90
2022-08-01T16:34:19.145Z,99.90
2022-08-01T16:37:08.386Z,99.90
2022-08-01T16:39:54.536Z,99.90
2022-08-01T16:42:42.439Z,99.90
2022-08-01T16:45:28.378Z,99.90
2022-08-01T16:48:15.969Z,99.90
2022-08-01T16:51:02.142Z,99.90
2022-08-01T16:53:47.972Z,99.90
2022-08-01T16:56:33.863Z,99.90
2022-08-01T16:59:19.865Z,99.90
2022-08-01T17:02:06.342Z,99.90
2022-08-01T17:04:52.012Z,99.90
2022-08-01T17:07:38.378Z,99.90
2022-08-01T17:10:23.968Z,99.90
2022-08-01T17:13:09.653Z,99.90
2022-08-01T17:15:55.799Z,99.90
2022-08-01T17:18:41.714Z,99.90
2022-08-01T17:21:27.975Z,99.90
2022-08-01T17:24:16.571Z,99.90
2022-08-01T17:27:02.638Z,99.90
2022-08-01T17:29:48.739Z,99.90
2022-08-01T17:32:37.379Z,99.90
2022-08-01T17:35:23.326Z,99.90
2022-08-01T17:38:08.992Z,99.90
2022-08-01T17:40:55.200Z,99.90
2022-08-01T17:43:41.031Z,99.90
2022-08-01T17:46:27.094Z,99.90
2022-08-01T17:49:13.054Z,99.90
2022-08-01T17:51:58.980Z,99.90
2022-08-01T17:54:45.069Z,99.90
2022-08-01T17:57:31.210Z,99.90
2022-08-01T18:00:17.467Z,99.90
2022-08-01T18:03:03.858Z,99.90
2022-08-01T18:05:54.451Z,99.90
2022-08-01T18:08:42.113Z,99.90
2022-08-01T18:11:28.534Z,99.90
2022-08-01T18:14:15.235Z,99.90
2022-08-01T18:17:01.335Z,99.90
2022-08-01T18:19:47.349Z,99.90
2022-08-01T18:22:34.239Z,99.90
2022-08-01T18:25:20.277Z,99.90
2022-08-01T18:28:16.452Z,99.90
2022-08-01T18:31:13.287Z,99.90
2022-08-01T18:33:59.088Z,99.90
2022-08-01T18:36:45.041Z,99.90
2022-08-01T18:39:31.061Z,99.90
2022-08-01T18:42:18.651Z,99.90
2022-08-01T18:45:04.857Z,99.90
2022-08-01T18:47:50.777Z,99.90
2022-08-01T18:50:36.997Z,99.90
2022-08-01T18:53:24.024Z,99.90
2022-08-01T18:56:12.935Z,99.90
2022-08-01T18:58:58.504Z,99.90
2022-08-01T19:01:44.643Z,99.90
2022-08-01T19:04:30.500Z,99.90
2022-08-01T19:07:24.288Z,99.90
2022-08-01T19:10:19.348Z,99.90
2022-08-01T19:13:05.740Z,99.90
2022-08-01T19:15:51.306Z,99.90
2022-08-01T19:18:38.239Z,99.90
2022-08-01T19:21:24.383Z,99.90
2022-08-01T19:24:28.048Z,99.90
2022-08-01T19:27:17.368Z,99.90
2022-08-01T19:30:03.601Z,99.90
2022-08-01T19:32:50.309Z,99.90
2022-08-01T19:35:37.301Z,99.90
2022-08-01T19:38:23.480Z,99.90
2022-08-01T19:41:09.300Z,99.90
2022-08-01T19:44:01.915Z,99.90
2022-08-01T19:46:47.534Z,99.90
2022-08-01T19:49:33.503Z,99.90
2022-08-01T19:52:24.691Z,99.90
2022-08-01T19:55:11.270Z,99.90
2022-08-01T20:01:10.197Z,99.90
2022-08-01T20:03:57.031Z,99.90
2022-08-01T20:06:46.792Z,99.90
2022-08-01T20:09:33.585Z,99.90
2022-08-01T20:12:23.366Z,99.90
2022-08-01T20:15:09.831Z,99.90
2022-08-01T20:17:59.205Z,99.90
2022-08-01T20:20:51.347Z,99.90
2022-08-01T20:23:40.074Z,99.90
2022-08-01T20:26:28.600Z,99.90
2022-08-01T20:29:16.167Z,99.90
2022-08-01T20:32:02.804Z,99.90
2022-08-01T20:34:50.430Z,99.90
2022-08-01T20:38:06.731Z,99.90
2022-08-01T20:40:49.909Z,99.90
2022-08-01T20:43:37.148Z,99.90
2022-08-01T20:46:28.235Z,99.90
2022-08-01T20:49:14.916Z,99.90
2022-08-01T20:52:11.953Z,99.90
2022-08-01T20:54:58.373Z,99.90
2022-08-01T20:57:49.871Z,99.90
2022-08-01T21:00:35.960Z,99.90
2022-08-01T21:03:26.062Z,99.90
2022-08-01T21:06:19.817Z,99.90
2022-08-01T21:09:06.639Z,99.90
2022-08-01T21:12:05.292Z,99.90
2022-08-01T21:14:53.397Z,99.90
2022-08-01T21:18:12.854Z,99.90
2022-08-01T21:21:22.157Z,99.90
2022-08-01T21:24:18.466Z,99.90
2022-08-01T21:27:04.927Z,99.90
2022-08-01T21:29:51.118Z,99.90
2022-08-01T21:32:37.730Z,99.90
2022-08-01T21:35:25.365Z,99.90
2022-08-01T21:38:14.914Z,99.90
2022-08-01T21:41:03.880Z,99.90
2022-08-01T21:43:51.229Z,99.90
2022-08-01T21:46:37.097Z,99.90
2022-08-01T21:49:23.327Z,99.90
2022-08-01T21:52:16.301Z,99.90
2022-08-01T21:55:15.402Z,99.90
2022-08-01T21:58:24.011Z,99.90
2022-08-01T22:01:24.785Z,99.90
2022-08-01T22:04:17.022Z,99.90
2022-08-01T22:07:03.540Z,99.90
2022-08-01T22:09:50.279Z,99.90
2022-08-01T22:12:36.465Z,99.90
2022-08-01T22:15:44.374Z,99.90
2022-08-01T22:18:33.803Z,99.90
2022-08-01T22:21:20.831Z,99.90
2022-08-01T22:24:07.088Z,99.90
2022-08-01T22:26:55.744Z,99.90
2022-08-01T22:29:41.654Z,99.90
2022-08-01T22:32:31.998Z,99.90
2022-08-01T22:35:18.140Z,99.90
2022-08-01T22:38:04.065Z,99.90
2022-08-01T22:40:54.001Z,99.90
2022-08-01T22:44:03.952Z,99.90
2022-08-01T22:47:04.187Z,99.90
2022-08-01T22:50:04.909Z,99.90
2022-08-01T22:53:17.379Z,99.90
2022-08-01T22:56:10.982Z,99.90
2022-08-01T22:59:02.222Z,99.90
2022-08-01T23:01:51.447Z,99.90
2022-08-01T23:04:45.956Z,99.90
2022-08-01T23:07:40.078Z,99.90
2022-08-01T23:10:26.666Z,99.90
2022-08-01T23:13:14.901Z,99.90
2022-08-01T23:16:03.412Z,99.90
2022-08-01T23:18:50.496Z,99.90
2022-08-01T23:21:41.740Z,99.90
2022-08-01T23:24:34.020Z,99.90
2022-08-01T23:27:55.737Z,99.90
2022-08-01T23:30:34.839Z,99.90
2022-08-01T23:33:20.791Z,99.90
2022-08-01T23:36:06.816Z,99.90
2022-08-01T23:38:52.693Z,99.90
2022-08-01T23:41:57.447Z,99.90
2022-08-01T23:44:44.592Z,99.90
2022-08-01T23:47:30.673Z,99.90
2022-08-01T23:50:16.635Z,99.90
2022-08-01T23:53:02.651Z,99.90
2022-08-01T23:55:48.435Z,99.90
2022-08-01T23:58:35.763Z,99.90
